Time,TemperatureF,DewpointF,PressureIn,WindDirection,WindDirectionDegrees,WindSpeedMPH,WindSpeedGustMPH,Humidity,HourlyPrecipIn,Conditions,Clouds,dailyrainin,SoftwareType,DateUTC
2013-12-17 00:00:00,61.0,29.0,-100.00,NNW,346,1.0,-999.0,29,0.00,,,-99.99,,2013-12-17 08:00:00,
2013-12-17 00:42:00,61.0,29.0,-100.00,NNW,346,1.0,-999.0,29,0.00,,,-99.99,,2013-12-17 08:42:00,
2013-12-17 00:52:00,61.0,29.0,-100.00,NNW,346,1.0,-999.0,29,0.00,,,-99.99,,2013-12-17 08:52:00,
2013-12-17 01:00:00,62.0,28.0,-100.00,NE,47,2.0,-999.0,28,0.00,,,-99.99,,2013-12-17 09:00:00,
2013-12-17 01:43:00,62.0,28.0,-100.00,NE,47,2.0,-999.0,28,0.00,,,-99.99,,2013-12-17 09:43:00,
2013-12-17 01:53:00,62.0,28.0,-100.00,NE,47,2.0,-999.0,28,0.00,,,-99.99,,2013-12-17 09:53:00,
2013-12-17 02:00:00,64.0,26.0,-100.00,NNW,341,2.0,-999.0,24,0.00,,,-99.99,,2013-12-17 10:00:00,
2013-12-17 02:43:00,64.0,26.0,-100.00,NNW,341,2.0,-999.0,24,0.00,,,-99.99,,2013-12-17 10:43:00,
2013-12-17 02:53:00,64.0,26.0,-100.00,NNW,341,2.0,-999.0,24,0.00,,,-99.99,,2013-12-17 10:53:00,
2013-12-17 03:00:00,65.0,26.0,-100.00,North,4,1.0,-999.0,23,0.00,,,-99.99,,2013-12-17 11:00:00,
2013-12-17 03:42:00,65.0,26.0,-100.00,North,4,1.0,-999.0,23,0.00,,,-99.99,,2013-12-17 11:42:00,
2013-12-17 03:52:00,65.0,26.0,-100.00,North,4,1.0,-999.0,23,0.00,,,-99.99,,2013-12-17 11:52:00,
2013-12-17 04:00:00,63.0,26.0,-100.00,North,10,3.0,-999.0,24,0.00,,,-99.99,,2013-12-17 12:00:00,
2013-12-17 04:42:00,63.0,26.0,-100.00,North,10,3.0,-999.0,24,0.00,,,-99.99,,2013-12-17 12:42:00,
2013-12-17 04:52:00,63.0,26.0,-100.00,North,10,3.0,-999.0,24,0.00,,,-99.99,,2013-12-17 12:52:00,
2013-12-17 05:00:00,65.0,26.0,-100.00,NNE,16,2.0,-999.0,22,0.00,,,-99.99,,2013-12-17 13:00:00,
2013-12-17 05:42:00,65.0,26.0,-100.00,NNE,16,2.0,-999.0,22,0.00,,,-99.99,,2013-12-17 13:42:00,
2013-12-17 05:52:00,65.0,26.0,-100.00,NNE,16,2.0,-999.0,22,0.00,,,-99.99,,2013-12-17 13:52:00,
2013-12-17 07:00:00,58.0,27.0,-100.00,ENE,70,2.0,-999.0,30,0.00,,,-99.99,,2013-12-17 15:00:00,
2013-12-17 07:53:00,58.0,27.0,-100.00,ENE,70,2.0,-999.0,30,0.00,,,-99.99,,2013-12-17 15:53:00,
2013-12-17 08:00:00,68.0,30.0,-100.00,WNW,287,1.0,-999.0,24,0.00,,,-99.99,,2013-12-17 16:00:00,
2013-12-17 08:43:00,68.0,30.0,-100.00,WNW,287,1.0,-999.0,24,0.00,,,-99.99,,2013-12-17 16:43:00,
2013-12-17 08:52:00,68.0,30.0,-100.00,WNW,287,1.0,-999.0,24,0.00,,,-99.99,,2013-12-17 16:52:00,
2013-12-17 09:00:00,67.0,33.0,-100.00,ENE,57,1.0,-999.0,28,0.00,,,-99.99,,2013-12-17 17:00:00,
2013-12-17 09:43:00,67.0,33.0,-100.00,ENE,57,1.0,-999.0,28,0.00,,,-99.99,,2013-12-17 17:43:00,
2013-12-17 09:53:00,67.0,33.0,-100.00,ENE,57,1.0,-999.0,28,0.00,,,-99.99,,2013-12-17 17:53:00,
2013-12-17 10:00:00,75.0,40.0,-100.00,SE,145,1.0,-999.0,29,0.00,,,-99.99,,2013-12-17 18:00:00,
2013-12-17 10:42:00,75.0,40.0,-100.00,SE,145,1.0,-999.0,29,0.00,,,-99.99,,2013-12-17 18:42:00,
2013-12-17 10:52:00,75.0,40.0,-100.00,SE,145,1.0,-999.0,29,0.00,,,-99.99,,2013-12-17 18:52:00,
2013-12-17 11:00:00,76.0,-99.9,-100.00,SW,224,5.0,-999.0,16,0.00,,,-99.99,,2013-12-17 19:00:00,
2013-12-17 11:42:00,76.0,-99.9,-100.00,SW,224,5.0,-999.0,16,0.00,,,-99.99,,2013-12-17 19:42:00,
2013-12-17 11:52:00,76.0,-99.9,-100.00,SW,224,5.0,-999.0,16,0.00,,,-99.99,,2013-12-17 19:52:00,
2013-12-17 12:00:00,79.0,36.0,-100.00,SSW,205,2.0,-999.0,21,0.00,,,-99.99,,2013-12-17 20:00:00,
2013-12-17 12:42:00,79.0,36.0,-100.00,SSW,205,2.0,-999.0,21,0.00,,,-99.99,,2013-12-17 20:42:00,
2013-12-17 12:52:00,79.0,36.0,-100.00,SSW,205,2.0,-999.0,21,0.00,,,-99.99,,2013-12-17 20:52:00,
2013-12-17 13:00:00,81.0,41.0,-100.00,SW,219,3.0,-999.0,24,0.00,,,-99.99,,2013-12-17 21:00:00,
2013-12-17 13:43:00,81.0,41.0,-100.00,SW,219,3.0,-999.0,24,0.00,,,-99.99,,2013-12-17 21:43:00,
2013-12-17 13:53:00,81.0,41.0,-100.00,SW,219,3.0,-999.0,24,0.00,,,-99.99,,2013-12-17 21:53:00,
2013-12-17 14:00:00,80.0,42.0,-100.00,SW,227,6.0,-999.0,26,0.00,,,-99.99,,2013-12-17 22:00:00,
2013-12-17 14:43:00,80.0,42.0,-100.00,SW,227,6.0,-999.0,26,0.00,,,-99.99,,2013-12-17 22:43:00,
2013-12-17 14:53:00,80.0,42.0,-100.00,SW,227,6.0,-999.0,26,0.00,,,-99.99,,2013-12-17 22:53:00,
2013-12-17 15:00:00,76.0,34.0,-100.00,SW,235,2.0,-999.0,22,0.00,,,-99.99,,2013-12-17 23:00:00,
2013-12-17 15:42:00,76.0,34.0,-100.00,SW,235,2.0,-999.0,22,0.00,,,-99.99,,2013-12-17 23:42:00,
2013-12-17 15:53:00,76.0,34.0,-100.00,SW,235,2.0,-999.0,22,0.00,,,-99.99,,2013-12-17 23:53:00,
2013-12-17 16:00:00,72.0,36.0,-100.00,SSE,152,1.0,-999.0,26,0.00,,,-99.99,,2013-12-18 00:00:00,
2013-12-17 16:42:00,72.0,36.0,-100.00,SSE,152,1.0,-999.0,26,0.00,,,-99.99,,2013-12-18 00:42:00,
2013-12-17 16:52:00,72.0,36.0,-100.00,SSE,152,1.0,-999.0,26,0.00,,,-99.99,,2013-12-18 00:52:00,
2013-12-17 17:00:00,69.0,42.0,-100.00,NE,41,2.0,-999.0,38,0.00,,,-99.99,,2013-12-18 01:00:00,
2013-12-17 17:42:00,69.0,42.0,-100.00,NE,41,2.0,-999.0,38,0.00,,,-99.99,,2013-12-18 01:42:00,
2013-12-17 17:52:00,69.0,42.0,-100.00,NE,41,2.0,-999.0,38,0.00,,,-99.99,,2013-12-18 01:52:00,
2013-12-17 18:00:00,64.0,43.0,-100.00,ESE,103,3.0,-999.0,46,0.00,,,-99.99,,2013-12-18 02:00:00,
2013-12-17 18:42:00,64.0,43.0,-100.00,ESE,103,3.0,-999.0,46,0.00,,,-99.99,,2013-12-18 02:42:00,
2013-12-17 18:52:00,64.0,43.0,-100.00,ESE,103,3.0,-999.0,46,0.00,,,-99.99,,2013-12-18 02:52:00,
2013-12-17 19:00:00,62.0,40.0,-100.00,ESE,109,1.0,-999.0,43,0.00,,,-99.99,,2013-12-18 03:00:00,
2013-12-17 19:44:00,62.0,40.0,-100.00,ESE,109,1.0,-999.0,43,0.00,,,-99.99,,2013-12-18 03:44:00,
2013-12-17 19:53:00,62.0,40.0,-100.00,ESE,109,1.0,-999.0,43,0.00,,,-99.99,,2013-12-18 03:53:00,
2013-12-17 20:00:00,60.0,49.0,-100.00,NE,40,2.0,-999.0,66,0.00,,,-99.99,,2013-12-18 04:00:00,
2013-12-17 20:43:00,60.0,49.0,-100.00,NE,40,2.0,-999.0,66,0.00,,,-99.99,,2013-12-18 04:43:00,
2013-12-17 20:53:00,60.0,49.0,-100.00,NE,40,2.0,-999.0,66,0.00,,,-99.99,,2013-12-18 04:53:00,
2013-12-17 21:00:00,61.0,44.0,-100.00,East,96,5.0,-999.0,52,0.00,,,-99.99,,2013-12-18 05:00:00,
2013-12-17 21:42:00,61.0,44.0,-100.00,East,96,5.0,-999.0,52,0.00,,,-99.99,,2013-12-18 05:42:00,
2013-12-17 21:53:00,61.0,44.0,-100.00,East,96,5.0,-999.0,52,0.00,,,-99.99,,2013-12-18 05:53:00,
2013-12-17 22:00:00,61.0,48.0,-100.00,NNE,32,2.0,-999.0,62,0.00,,,-99.99,,2013-12-18 06:00:00,
2013-12-17 22:42:00,61.0,48.0,-100.00,NNE,32,2.0,-999.0,62,0.00,,,-99.99,,2013-12-18 06:42:00,
2013-12-17 22:53:00,61.0,48.0,-100.00,NNE,32,2.0,-999.0,62,0.00,,,-99.99,,2013-12-18 06:53:00,
2013-12-17 23:00:00,59.0,47.0,-100.00,East,86,2.0,-999.0,63,0.00,,,-99.99,,2013-12-18 07:00:00,
2013-12-17 23:42:00,59.0,47.0,-100.00,East,86,2.0,-999.0,63,0.00,,,-99.99,,2013-12-18 07:42:00,
2013-12-17 23:53:00,59.0,47.0,-100.00,East,86,2.0,-999.0,63,0.00,,,-99.99,,2013-12-18 07:53:00,